Time;durP1;ratioP1;P1;durP2;ratioP2;P2;SDS_P1;SDS_P2;PMS_P1;PMS_P2;Temp;Humidity;BMP_temperature;BMP_pressure;BME280_temperature;BME280_humidity;BME280_pressure;Samples;Min_cycle;Max_cycle;Signal;HPM_P1;HPM_P2
2021/08/07 19:09:52;;;;;;;;;;;20.10;99.90;;;19.77;100.00;100579.22;4940909;28;19988;-64
2021/08/07 19:12:20;;;;;;;;;;;20.00;99.90;;;19.74;100.00;100575.22;4952594;28;19926;-63
2021/08/07 19:14:47;;;;;;;;;;;20.00;99.90;;;19.71;100.00;100577.88;4971445;28;19973;-64
2021/08/07 19:17:15;;;;;;;;;;;19.90;99.90;;;19.69;100.00;100585.69;4976586;28;19926;-64
2021/08/07 19:19:45;;;;;;;;;;;19.90;99.90;;;19.60;100.00;100583.94;4976494;28;19926;-64
2021/08/07 19:22:13;;;;;;;;;;;19.80;99.90;;;19.54;100.00;100582.63;4976637;28;19993;-63
2021/08/07 19:24:41;;;;;;;;;;;19.80;99.90;;;19.47;100.00;100582.44;4975813;28;20345;-64
2021/08/07 19:27:11;;;;;;;;;;;19.80;99.90;;;19.42;100.00;100590.94;4976674;28;19926;-64
2021/08/07 19:29:38;;;;;;;;;;;19.70;99.90;;;19.39;100.00;100599.03;4976499;28;19932;-64
2021/08/07 19:32:08;;;;;;;;;;;19.60;99.90;;;19.34;100.00;100594.59;4976366;28;20304;-63
2021/08/07 19:34:35;;;;;;;;;;;19.60;99.90;;;19.27;100.00;100591.69;4974701;28;19932;-65
2021/08/07 19:37:04;;;;;;;;;;;19.50;99.90;;;19.19;100.00;100592.66;4976230;28;19926;-64
2021/08/07 19:39:32;;;;;;;;;;;19.50;99.90;;;19.11;100.00;100593.63;4976394;28;20370;-64
2021/08/07 19:41:59;;;;;;;;;;;19.40;99.90;;;19.06;100.00;100600.16;4976319;28;20020;-63
2021/08/07 19:44:29;;;;;;;;;;;19.30;99.90;;;19.00;100.00;100604.31;4975313;28;20020;-64
2021/08/07 19:46:57;;;;;;;;;;;19.30;99.90;;;18.95;100.00;100610.03;4975905;28;19930;-63
2021/08/07 19:49:24;;;;;;;;;;;19.20;99.90;;;18.91;100.00;100608.34;4976049;28;19946;-64
2021/08/07 19:51:56;;;;;;;;;;;19.20;99.90;;;18.87;100.00;100610.22;4975868;28;19940;-63
2021/08/07 19:54:23;;;;;;;;;;;19.10;99.90;;;18.78;100.00;100609.56;4975227;28;20023;-63
2021/08/07 19:56:51;;;;;;;;;;;;;;;18.80;100.00;100618.22;4975878;28;19926;-66
2021/08/07 19:59:21;;;;;;;;;;;;;;;18.73;100.00;100615.28;4976041;28;19948;-64
2021/08/07 20:01:52;;;;;;;;;;;19.00;99.90;;;18.69;100.00;100619.88;4975909;28;19980;-63
2021/08/07 20:04:22;;;;;;;;;;;18.90;99.90;;;18.62;100.00;100616.94;4974967;28;19984;-65
2021/08/07 20:06:52;;;;;;;;;;;18.90;99.90;;;18.61;100.00;100626.28;4975265;28;19981;-65
2021/08/07 20:09:23;;;;;;;;;;;18.80;99.90;;;18.60;100.00;100624.72;4975736;28;20369;-64
2021/08/07 20:11:52;;;;;;;;;;;18.80;99.90;;;18.55;100.00;100623.81;4975796;28;19980;-64
2021/08/07 20:14:20;;;;;;;;;;;18.80;99.90;;;18.49;100.00;100627.94;4975017;28;20412;-63
2021/08/07 20:16:48;;;;;;;;;;;18.70;99.90;;;18.49;100.00;100632.59;4975606;28;20025;-63
2021/08/07 20:19:17;;;;;;;;;;;18.70;99.90;;;18.44;100.00;100628.16;4975585;28;19933;-64
2021/08/07 20:21:47;;;;;;;;;;;18.70;99.90;;;18.41;100.00;100637.06;4975682;28;19930;-63
2021/08/07 20:24:15;;;;;;;;;;;18.70;99.90;;;18.40;100.00;100638.19;4973822;28;19930;-63
2021/08/07 20:26:43;;;;;;;;;;;18.60;99.90;;;18.35;100.00;100635.72;4975321;28;20024;-63
2021/08/07 20:29:11;;;;;;;;;;;18.60;99.90;;;18.34;100.00;100644.25;4975475;28;19926;-63
2021/08/07 20:31:39;;;;;;;;;;;18.60;99.90;;;18.30;100.00;100644.13;4975316;28;20369;-64
2021/08/07 20:34:08;;;;;;;;;;;18.50;99.90;;;18.27;100.00;100655.78;4974432;28;19933;-63
2021/08/07 20:36:38;;;;;;;;;;;18.40;99.90;;;18.22;100.00;100656.03;4975078;28;19937;-65
2021/08/07 20:39:06;;;;;;;;;;;18.40;99.90;;;18.19;100.00;100659.44;4975161;28;20266;-63
2021/08/07 20:41:34;;;;;;;;;;;18.40;99.90;;;18.21;100.00;100664.59;4975212;28;19930;-63
2021/08/07 20:44:02;;;;;;;;;;;18.40;99.90;;;18.15;100.00;100663.22;4974165;28;19981;-64
2021/08/07 20:46:30;;;;;;;;;;;18.40;99.90;;;18.11;100.00;100678.72;4974828;28;19934;-64
2021/08/07 20:48:58;;;;;;;;;;;18.30;99.90;;;18.11;100.00;100674.06;4975162;28;19932;-64
2021/08/07 20:51:26;;;;;;;;;;;18.30;99.90;;;18.10;100.00;100688.88;4974776;28;20373;-63
2021/08/07 20:53:55;;;;;;;;;;;18.30;99.90;;;18.08;100.00;100682.97;4974114;28;19933;-64
2021/08/07 20:56:22;;;;;;;;;;;18.30;99.90;;;18.06;100.00;100687.97;4974591;28;19930;-64
2021/08/07 20:58:50;;;;;;;;;;;18.30;99.90;;;18.02;100.00;100689.81;4974881;28;20377;-65
2021/08/07 21:01:19;;;;;;;;;;;18.20;99.90;;;18.02;100.00;100698.78;4974876;28;19963;-64
2021/08/07 21:03:47;;;;;;;;;;;18.20;99.90;;;17.99;100.00;100685.78;4974205;28;19933;-64
2021/08/07 21:06:15;;;;;;;;;;;18.20;99.90;;;17.98;100.00;100695.16;4974196;28;20407;-63
2021/08/07 21:08:42;;;;;;;;;;;18.20;99.90;;;17.94;100.00;100698.91;4974640;28;19930;-63
2021/08/07 21:11:12;;;;;;;;;;;18.20;99.90;;;17.91;100.00;100696.84;4974587;28;20190;-64
2021/08/07 21:13:39;;;;;;;;;;;18.10;99.90;;;17.91;100.00;100694.91;4974127;28;20028;-64
2021/08/07 21:16:08;;;;;;;;;;;18.10;99.90;;;17.88;100.00;100692.88;4974517;28;19930;-64
2021/08/07 21:18:35;;;;;;;;;;;18.10;99.90;;;17.87;100.00;100707.66;4974346;28;20042;-63
2021/08/07 21:21:04;;;;;;;;;;;18.10;99.90;;;17.86;100.00;100711.56;4974396;28;19926;-64
2021/08/07 21:23:32;;;;;;;;;;;18.00;99.90;;;17.83;100.00;100708.72;4974022;28;19937;-63
2021/08/07 21:26:00;;;;;;;;;;;18.00;99.90;;;17.81;100.00;100711.78;4974274;28;19932;-64
2021/08/07 21:28:29;;;;;;;;;;;18.00;99.90;;;17.80;100.00;100710.19;4974332;28;20374;-64
2021/08/07 21:31:01;;;;;;;;;;;18.00;99.90;;;17.80;100.00;100714.84;4974220;28;19930;-63
2021/08/07 21:33:29;;;;;;;;;;;18.00;99.90;;;17.76;100.00;100711.19;4973920;28;20384;-63
2021/08/07 21:35:57;;;;;;;;;;;17.90;99.90;;;17.73;100.00;100712.69;4973885;28;20381;-65
2021/08/07 21:38:25;;;;;;;;;;;17.90;99.90;;;17.74;100.00;100714.28;4973981;28;19932;-64
2021/08/07 21:40:53;;;;;;;;;;;17.90;99.90;;;17.72;100.00;100721.25;4974176;28;19930;-64
2021/08/07 21:43:24;;;;;;;;;;;17.90;99.90;;;17.71;100.00;100716.91;4973770;28;20397;-65
2021/08/07 21:45:54;;;;;;;;;;;17.90;99.90;;;17.71;100.00;100722.38;4973120;28;19930;-63
2021/08/07 21:48:22;;;;;;;;;;;17.90;99.90;;;17.73;100.00;100728.28;4973919;28;19981;-64
2021/08/07 21:50:50;;;;;;;;;;;17.90;99.90;;;17.73;100.00;100733.75;4974185;28;19930;-64
2021/08/07 21:53:20;;;;;;;;;;;17.90;99.90;;;17.71;100.00;100722.38;4973838;28;19926;-65
2021/08/07 21:55:48;;;;;;;;;;;17.90;99.90;;;17.68;100.00;100731.25;4973242;28;19927;-63
2021/08/07 21:58:16;;;;;;;;;;;17.80;99.90;;;17.63;100.00;100729.53;4973564;28;20005;-63
2021/08/07 22:00:45;;;;;;;;;;;17.80;99.90;;;17.61;100.00;100731.00;4974019;28;20025;-65
2021/08/07 22:03:16;;;;;;;;;;;17.80;99.90;;;17.58;100.00;100720.75;4973753;28;19938;-63
2021/08/07 22:05:44;;;;;;;;;;;17.70;99.90;;;17.57;100.00;100727.38;4972737;28;19977;-63
2021/08/07 22:08:13;;;;;;;;;;;17.80;99.90;;;17.53;100.00;100723.66;4973609;28;20332;-63
2021/08/07 22:10:43;;;;;;;;;;;17.70;99.90;;;17.50;100.00;100725.16;4973801;28;19938;-65
2021/08/07 22:13:11;;;;;;;;;;;17.70;99.90;;;17.47;100.00;100729.38;4973734;28;19933;-63
2021/08/07 22:15:38;;;;;;;;;;;17.60;99.90;;;17.46;100.00;100724.22;4972760;28;20017;-64
2021/08/07 22:18:10;;;;;;;;;;;17.60;99.90;;;17.47;100.00;100723.09;4973611;28;19926;-64
2021/08/07 22:20:40;;;;;;;;;;;17.70;99.90;;;17.44;100.00;100727.31;4973808;28;19999;-65
2021/08/07 22:23:08;;;;;;;;;;;17.60;99.90;;;17.42;100.00;100728.75;4973457;28;19942;-64
2021/08/07 22:25:41;;;;;;;;;;;17.60;99.90;;;17.40;100.00;100723.63;4972436;28;19929;-64
2021/08/07 22:28:09;;;;;;;;;;;17.60;99.90;;;17.37;100.00;100731.72;4973420;28;19933;-64
2021/08/07 22:30:37;;;;;;;;;;;17.50;99.90;;;17.36;100.00;100727.38;4973732;28;19926;-63
2021/08/07 22:33:05;;;;;;;;;;;;;;;17.30;100.00;100726.78;4973416;28;19934;-66
2021/08/07 22:35:33;;;;;;;;;;;17.40;99.90;;;17.28;100.00;100726.34;4972286;28;19945;-63
2021/08/07 22:38:02;;;;;;;;;;;17.40;99.90;;;17.26;100.00;100723.16;4972896;28;20461;-64
2021/08/07 22:40:30;;;;;;;;;;;17.40;99.90;;;17.26;100.00;100736.00;4973620;28;19932;-64
2021/08/07 22:42:58;;;;;;;;;;;;;;;17.24;100.00;100728.13;4973555;28;19926;-64
2021/08/07 22:45:26;;;;;;;;;;;17.40;99.90;;;17.22;100.00;100735.88;4971908;28;19940;-63
2021/08/07 22:47:54;;;;;;;;;;;17.40;99.90;;;17.21;100.00;100734.28;4975497;28;20277;-63
2021/08/07 22:50:24;;;;;;;;;;;17.40;99.90;;;17.23;100.00;100742.94;4977111;28;20372;-64
2021/08/07 22:52:52;;;;;;;;;;;17.40;99.90;;;17.20;100.00;100740.88;4977233;28;19930;-64
2021/08/07 22:55:22;;;;;;;;;;;17.30;99.90;;;17.15;100.00;100726.63;4975580;28;19930;-65
2021/08/07 22:57:49;;;;;;;;;;;17.40;99.90;;;17.16;100.00;100734.50;4976841;28;19926;-64
2021/08/07 23:00:17;;;;;;;;;;;17.30;99.90;;;17.15;100.00;100734.81;4976859;28;19959;-63
2021/08/07 23:02:45;;;;;;;;;;;17.30;99.90;;;17.10;100.00;100732.28;4977078;28;19973;-63
2021/08/07 23:05:13;;;;;;;;;;;17.30;99.90;;;17.07;100.00;100732.97;4975422;28;19930;-64
2021/08/07 23:07:41;;;;;;;;;;;17.30;99.90;;;17.05;100.00;100729.78;4976487;28;20388;-65
2021/08/07 23:10:10;;;;;;;;;;;17.30;99.90;;;17.04;100.00;100730.91;4976725;28;19926;-64
2021/08/07 23:12:39;;;;;;;;;;;17.20;99.90;;;17.02;100.00;100742.19;4976952;28;20354;-65
2021/08/07 23:15:08;;;;;;;;;;;17.20;99.90;;;17.00;100.00;100738.16;4975509;28;19993;-65
2021/08/07 23:17:36;;;;;;;;;;;17.20;99.90;;;16.98;100.00;100733.03;4976408;28;20427;-65
2021/08/07 23:20:04;;;;;;;;;;;17.20;99.90;;;16.95;100.00;100739.19;4976572;28;19933;-64
2021/08/07 23:22:32;;;;;;;;;;;17.20;99.90;;;16.94;100.00;100729.38;4976758;28;19938;-64
2021/08/07 23:25:00;;;;;;;;;;;17.20;99.90;;;16.93;100.00;100734.03;4975653;28;20374;-63
2021/08/07 23:27:28;;;;;;;;;;;17.10;99.90;;;16.92;100.00;100742.56;4976120;28;20369;-64
2021/08/07 23:29:57;;;;;;;;;;;17.10;99.90;;;16.90;100.00;100737.44;4976325;28;19934;-64
2021/08/07 23:32:25;;;;;;;;;;;17.10;99.90;;;16.88;100.00;100738.91;4976390;28;19930;-63
2021/08/07 23:34:52;;;;;;;;;;;17.10;99.90;;;16.86;100.00;100746.63;4975461;28;19988;-64
2021/08/07 23:37:20;;;;;;;;;;;17.10;99.90;;;16.82;100.00;100741.03;4975867;28;19926;-64
2021/08/07 23:39:48;;;;;;;;;;;17.00;99.90;;;16.79;100.00;100749.09;4976011;28;20383;-65
2021/08/07 23:42:16;;;;;;;;;;;17.00;99.90;;;16.79;100.00;100743.63;4976298;28;19933;-64
2021/08/07 23:44:43;;;;;;;;;;;17.00;99.90;;;16.80;100.00;100747.97;4974899;28;20443;-65
2021/08/07 23:47:12;;;;;;;;;;;17.00;99.90;;;16.80;100.00;100732.41;4975834;28;19930;-64
2021/08/07 23:49:40;;;;;;;;;;;16.90;99.90;;;16.79;100.00;100743.63;4975991;28;20043;-63
2021/08/07 23:52:08;;;;;;;;;;;16.90;99.90;;;16.75;100.00;100737.22;4976221;28;19926;-64
2021/08/07 23:54:35;;;;;;;;;;;16.90;99.90;;;16.77;100.00;100735.78;4974851;28;19930;-64
2021/08/07 23:57:03;;;;;;;;;;;16.90;99.90;;;16.73;100.00;100732.13;4975455;28;19933;-64
2021/08/07 23:59:31;;;;;;;;;;;16.90;99.90;;;16.72;100.00;100737.88;4974681;28;19963;-64
